sensor_id;sensor_type;location;lat;lon;timestamp;P1;durP1;ratioP1;P2;durP2;ratioP2
61407;SDS011;47274;43.054;25.146;2022-11-20T07:51:12;20.80;;;9.63;;
61407;SDS011;47274;43.054;25.146;2022-11-20T07:53:39;19.80;;;9.07;;
61407;SDS011;47274;43.054;25.146;2022-11-20T07:56:05;17.60;;;8.70;;
61407;SDS011;47274;43.054;25.146;2022-11-20T07:58:31;18.80;;;8.80;;
61407;SDS011;47274;43.054;25.146;2022-11-20T08:01:02;21.30;;;10.48;;
61407;SDS011;47274;43.054;25.146;2022-11-20T08:03:31;20.23;;;10.07;;
61407;SDS011;47274;43.054;25.146;2022-11-20T08:06:01;21.38;;;10.55;;
61407;SDS011;47274;43.054;25.146;2022-11-20T08:08:28;18.92;;;9.13;;
61407;SDS011;47274;43.054;25.146;2022-11-20T08:10:58;21.80;;;11.15;;
61407;SDS011;47274;43.054;25.146;2022-11-20T08:13:44;21.60;;;11.25;;
61407;SDS011;47274;43.054;25.146;2022-11-20T08:16:28;20.38;;;10.40;;
61407;SDS011;47274;43.054;25.146;2022-11-20T08:18:55;21.17;;;10.68;;
61407;SDS011;47274;43.054;25.146;2022-11-20T08:21:21;28.70;;;16.25;;
61407;SDS011;47274;43.054;25.146;2022-11-20T08:23:47;22.65;;;11.70;;
61407;SDS011;47274;43.054;25.146;2022-11-20T08:26:13;21.73;;;10.60;;
61407;SDS011;47274;43.054;25.146;2022-11-20T08:28:39;22.17;;;10.98;;
61407;SDS011;47274;43.054;25.146;2022-11-20T08:31:05;20.75;;;10.18;;
61407;SDS011;47274;43.054;25.146;2022-11-20T08:33:31;21.63;;;10.52;;
61407;SDS011;47274;43.054;25.146;2022-11-20T08:36:01;21.10;;;10.10;;
61407;SDS011;47274;43.054;25.146;2022-11-20T08:38:29;22.50;;;11.20;;
61407;SDS011;47274;43.054;25.146;2022-11-20T08:40:59;20.52;;;10.30;;
61407;SDS011;47274;43.054;25.146;2022-11-20T08:43:45;25.45;;;13.38;;
61407;SDS011;47274;43.054;25.146;2022-11-20T08:46:11;22.08;;;10.77;;
61407;SDS011;47274;43.054;25.146;2022-11-20T08:48:37;23.00;;;10.98;;
61407;SDS011;47274;43.054;25.146;2022-11-20T08:51:03;21.63;;;11.18;;
61407;SDS011;47274;43.054;25.146;2022-11-20T08:53:29;22.70;;;11.35;;
61407;SDS011;47274;43.054;25.146;2022-11-20T08:55:57;21.63;;;10.77;;
61407;SDS011;47274;43.054;25.146;2022-11-20T08:58:23;24.48;;;12.18;;
61407;SDS011;47274;43.054;25.146;2022-11-20T09:00:50;24.55;;;13.73;;
61407;SDS011;47274;43.054;25.146;2022-11-20T09:03:16;96.03;;;81.82;;
61407;SDS011;47274;43.054;25.146;2022-11-20T09:05:42;51.47;;;40.22;;
61407;SDS011;47274;43.054;25.146;2022-11-20T09:08:08;40.67;;;27.52;;
61407;SDS011;47274;43.054;25.146;2022-11-20T09:10:34;28.08;;;16.35;;
61407;SDS011;47274;43.054;25.146;2022-11-20T09:13:01;25.60;;;14.13;;
61407;SDS011;47274;43.054;25.146;2022-11-20T09:15:27;25.25;;;14.02;;
61407;SDS011;47274;43.054;25.146;2022-11-20T09:20:20;25.90;;;15.27;;
61407;SDS011;47274;43.054;25.146;2022-11-20T09:22:47;23.23;;;12.65;;
61407;SDS011;47274;43.054;25.146;2022-11-20T09:25:13;23.77;;;12.05;;
61407;SDS011;47274;43.054;25.146;2022-11-20T09:27:39;22.73;;;12.32;;
61407;SDS011;47274;43.054;25.146;2022-11-20T09:30:09;21.38;;;11.63;;
61407;SDS011;47274;43.054;25.146;2022-11-20T09:32:35;22.65;;;11.57;;
61407;SDS011;47274;43.054;25.146;2022-11-20T09:35:01;21.50;;;12.27;;
61407;SDS011;47274;43.054;25.146;2022-11-20T09:37:28;21.08;;;10.63;;
61407;SDS011;47274;43.054;25.146;2022-11-20T09:39:54;22.60;;;13.05;;
61407;SDS011;47274;43.054;25.146;2022-11-20T09:42:23;19.58;;;10.70;;
61407;SDS011;47274;43.054;25.146;2022-11-20T09:45:35;21.00;;;10.13;;
61407;SDS011;47274;43.054;25.146;2022-11-20T09:48:25;20.10;;;9.95;;
61407;SDS011;47274;43.054;25.146;2022-11-20T09:56:59;23.25;;;12.15;;
61407;SDS011;47274;43.054;25.146;2022-11-20T09:59:40;23.90;;;11.70;;
61407;SDS011;47274;43.054;25.146;2022-11-20T10:02:19;20.92;;;10.20;;
61407;SDS011;47274;43.054;25.146;2022-11-20T10:05:04;20.88;;;10.00;;
61407;SDS011;47274;43.054;25.146;2022-11-20T10:10:30;22.52;;;10.95;;
61407;SDS011;47274;43.054;25.146;2022-11-20T10:13:09;22.02;;;10.80;;
61407;SDS011;47274;43.054;25.146;2022-11-20T10:15:44;21.92;;;11.40;;
61407;SDS011;47274;43.054;25.146;2022-11-20T10:18:39;23.55;;;12.30;;
61407;SDS011;47274;43.054;25.146;2022-11-20T10:24:08;20.90;;;10.18;;
61407;SDS011;47274;43.054;25.146;2022-11-20T10:29:47;20.80;;;9.80;;
61407;SDS011;47274;43.054;25.146;2022-11-20T10:32:20;18.60;;;9.30;;
61407;SDS011;47274;43.054;25.146;2022-11-20T10:37:50;24.05;;;11.93;;
61407;SDS011;47274;43.054;25.146;2022-11-20T10:40:22;24.38;;;11.70;;
61407;SDS011;47274;43.054;25.146;2022-11-20T10:45:43;23.45;;;12.20;;
61407;SDS011;47274;43.054;25.146;2022-11-20T10:48:22;20.83;;;10.63;;
61407;SDS011;47274;43.054;25.146;2022-11-20T10:53:37;20.45;;;9.10;;
61407;SDS011;47274;43.054;25.146;2022-11-20T10:56:16;18.92;;;8.75;;
61407;SDS011;47274;43.054;25.146;2022-11-20T10:58:45;17.02;;;8.20;;
61407;SDS011;47274;43.054;25.146;2022-11-20T11:01:20;19.70;;;9.50;;
61407;SDS011;47274;43.054;25.146;2022-11-20T11:03:51;17.75;;;8.75;;
61407;SDS011;47274;43.054;25.146;2022-11-20T11:08:55;17.05;;;8.18;;
61407;SDS011;47274;43.054;25.146;2022-11-20T11:11:25;16.73;;;7.63;;
61407;SDS011;47274;43.054;25.146;2022-11-20T11:14:10;16.65;;;7.65;;
61407;SDS011;47274;43.054;25.146;2022-11-20T11:16:48;19.20;;;8.40;;
61407;SDS011;47274;43.054;25.146;2022-11-20T11:19:19;17.25;;;7.82;;
61407;SDS011;47274;43.054;25.146;2022-11-20T11:21:47;16.10;;;7.63;;
61407;SDS011;47274;43.054;25.146;2022-11-20T11:24:25;17.50;;;8.50;;
61407;SDS011;47274;43.054;25.146;2022-11-20T11:27:02;17.90;;;7.72;;
61407;SDS011;47274;43.054;25.146;2022-11-20T11:29:35;15.80;;;7.78;;
61407;SDS011;47274;43.054;25.146;2022-11-20T11:32:06;17.55;;;8.70;;
61407;SDS011;47274;43.054;25.146;2022-11-20T11:34:34;16.13;;;8.00;;
61407;SDS011;47274;43.054;25.146;2022-11-20T11:37:01;18.10;;;9.02;;
61407;SDS011;47274;43.054;25.146;2022-11-20T11:39:30;20.60;;;10.27;;
61407;SDS011;47274;43.054;25.146;2022-11-20T11:41:59;21.13;;;10.73;;
61407;SDS011;47274;43.054;25.146;2022-11-20T11:44:32;19.58;;;8.98;;
61407;SDS011;47274;43.054;25.146;2022-11-20T11:47:21;19.48;;;9.20;;
61407;SDS011;47274;43.054;25.146;2022-11-20T12:03:38;20.80;;;10.65;;
61407;SDS011;47274;43.054;25.146;2022-11-20T12:06:14;22.88;;;11.40;;
61407;SDS011;47274;43.054;25.146;2022-11-20T12:14:47;25.88;;;14.27;;
61407;SDS011;47274;43.054;25.146;2022-11-20T12:17:17;31.08;;;16.60;;
61407;SDS011;47274;43.054;25.146;2022-11-20T12:19:43;28.00;;;15.85;;
61407;SDS011;47274;43.054;25.146;2022-11-20T12:22:19;26.42;;;13.52;;
61407;SDS011;47274;43.054;25.146;2022-11-20T12:30:21;29.35;;;16.90;;
61407;SDS011;47274;43.054;25.146;2022-11-20T13:00:28;61.00;;;36.58;;
61407;SDS011;47274;43.054;25.146;2022-11-20T13:08:29;59.88;;;33.38;;
61407;SDS011;47274;43.054;25.146;2022-11-20T13:19:19;29.52;;;17.65;;
61407;SDS011;47274;43.054;25.146;2022-11-20T13:21:46;28.55;;;16.02;;
61407;SDS011;47274;43.054;25.146;2022-11-20T13:26:59;32.58;;;19.75;;
61407;SDS011;47274;43.054;25.146;2022-11-20T13:29:26;30.52;;;16.60;;
61407;SDS011;47274;43.054;25.146;2022-11-20T13:32:00;26.60;;;16.17;;
61407;SDS011;47274;43.054;25.146;2022-11-20T13:34:32;33.72;;;20.40;;
61407;SDS011;47274;43.054;25.146;2022-11-20T13:37:01;27.75;;;14.93;;
61407;SDS011;47274;43.054;25.146;2022-11-20T13:39:35;27.88;;;14.40;;
61407;SDS011;47274;43.054;25.146;2022-11-20T13:44:44;25.65;;;13.27;;
61407;SDS011;47274;43.054;25.146;2022-11-20T13:47:23;21.38;;;10.80;;
61407;SDS011;47274;43.054;25.146;2022-11-20T13:49:51;23.15;;;11.95;;
61407;SDS011;47274;43.054;25.146;2022-11-20T13:52:39;23.23;;;12.70;;
61407;SDS011;47274;43.054;25.146;2022-11-20T13:55:18;25.23;;;13.52;;
61407;SDS011;47274;43.054;25.146;2022-11-20T14:01:16;24.45;;;13.10;;
61407;SDS011;47274;43.054;25.146;2022-11-20T14:03:49;26.42;;;14.40;;
61407;SDS011;47274;43.054;25.146;2022-11-20T14:06:28;24.38;;;12.45;;
61407;SDS011;47274;43.054;25.146;2022-11-20T14:08:59;30.27;;;15.88;;
61407;SDS011;47274;43.054;25.146;2022-11-20T14:11:26;30.58;;;15.77;;
61407;SDS011;47274;43.054;25.146;2022-11-20T14:14:03;45.58;;;27.63;;
61407;SDS011;47274;43.054;25.146;2022-11-20T14:16:39;30.95;;;17.95;;
61407;SDS011;47274;43.054;25.146;2022-11-20T14:21:46;26.05;;;13.43;;
61407;SDS011;47274;43.054;25.146;2022-11-20T14:24:17;23.05;;;13.00;;
61407;SDS011;47274;43.054;25.146;2022-11-20T14:26:45;24.67;;;12.32;;
61407;SDS011;47274;43.054;25.146;2022-11-20T14:29:19;24.02;;;12.30;;
61407;SDS011;47274;43.054;25.146;2022-11-20T14:31:53;20.17;;;10.00;;
61407;SDS011;47274;43.054;25.146;2022-11-20T14:34:22;20.58;;;10.98;;
61407;SDS011;47274;43.054;25.146;2022-11-20T14:36:54;25.00;;;14.25;;
61407;SDS011;47274;43.054;25.146;2022-11-20T14:39:41;17.80;;;8.73;;
61407;SDS011;47274;43.054;25.146;2022-11-20T14:42:30;17.40;;;8.57;;
61407;SDS011;47274;43.054;25.146;2022-11-20T14:44:57;25.63;;;13.55;;
61407;SDS011;47274;43.054;25.146;2022-11-20T14:47:30;36.83;;;18.83;;
61407;SDS011;47274;43.054;25.146;2022-11-20T14:49:58;38.40;;;20.85;;
61407;SDS011;47274;43.054;25.146;2022-11-20T14:52:26;22.27;;;11.57;;
61407;SDS011;47274;43.054;25.146;2022-11-20T14:54:57;19.27;;;8.27;;
61407;SDS011;47274;43.054;25.146;2022-11-20T14:57:34;240.38;;;18.80;;
61407;SDS011;47274;43.054;25.146;2022-11-20T15:02:43;20.50;;;8.85;;
61407;SDS011;47274;43.054;25.146;2022-11-20T15:05:10;36.42;;;9.80;;
61407;SDS011;47274;43.054;25.146;2022-11-20T15:07:40;29.48;;;9.43;;
61407;SDS011;47274;43.054;25.146;2022-11-20T15:10:12;20.13;;;10.52;;
61407;SDS011;47274;43.054;25.146;2022-11-20T15:12:49;21.25;;;11.32;;
61407;SDS011;47274;43.054;25.146;2022-11-20T15:15:28;19.73;;;9.65;;
61407;SDS011;47274;43.054;25.146;2022-11-20T15:17:58;28.27;;;16.58;;
61407;SDS011;47274;43.054;25.146;2022-11-20T15:20:25;23.52;;;13.63;;
61407;SDS011;47274;43.054;25.146;2022-11-20T15:22:55;20.20;;;10.10;;
61407;SDS011;47274;43.054;25.146;2022-11-20T15:25:22;20.42;;;10.65;;
61407;SDS011;47274;43.054;25.146;2022-11-20T15:27:55;12.98;;;6.63;;
61407;SDS011;47274;43.054;25.146;2022-11-20T15:30:23;313.00;;;147.32;;
61407;SDS011;47274;43.054;25.146;2022-11-20T15:32:49;497.83;;;308.50;;
61407;SDS011;47274;43.054;25.146;2022-11-20T15:35:15;93.40;;;45.90;;
61407;SDS011;47274;43.054;25.146;2022-11-20T15:37:41;69.70;;;30.38;;
61407;SDS011;47274;43.054;25.146;2022-11-20T15:40:08;144.32;;;102.75;;
61407;SDS011;47274;43.054;25.146;2022-11-20T15:42:34;22.65;;;10.88;;
61407;SDS011;47274;43.054;25.146;2022-11-20T15:45:02;30.92;;;15.18;;
61407;SDS011;47274;43.054;25.146;2022-11-20T15:47:29;20.63;;;9.98;;
61407;SDS011;47274;43.054;25.146;2022-11-20T15:49:58;31.15;;;15.93;;
61407;SDS011;47274;43.054;25.146;2022-11-20T15:52:24;28.40;;;13.82;;
61407;SDS011;47274;43.054;25.146;2022-11-20T15:54:50;39.25;;;20.83;;
61407;SDS011;47274;43.054;25.146;2022-11-20T15:57:16;22.38;;;9.55;;
61407;SDS011;47274;43.054;25.146;2022-11-20T15:59:42;31.17;;;14.38;;
61407;SDS011;47274;43.054;25.146;2022-11-20T16:02:11;38.38;;;18.88;;
61407;SDS011;47274;43.054;25.146;2022-11-20T16:04:39;42.28;;;27.55;;
61407;SDS011;47274;43.054;25.146;2022-11-20T16:07:05;34.30;;;16.13;;
61407;SDS011;47274;43.054;25.146;2022-11-20T16:09:31;29.42;;;14.13;;
61407;SDS011;47274;43.054;25.146;2022-11-20T16:11:57;54.63;;;38.63;;
61407;SDS011;47274;43.054;25.146;2022-11-20T16:14:27;48.42;;;37.25;;
61407;SDS011;47274;43.054;25.146;2022-11-20T16:17:11;31.65;;;18.98;;
61407;SDS011;47274;43.054;25.146;2022-11-20T16:19:57;27.02;;;14.35;;
61407;SDS011;47274;43.054;25.146;2022-11-20T16:22:23;24.73;;;12.68;;
61407;SDS011;47274;43.054;25.146;2022-11-20T16:24:52;34.30;;;18.73;;
61407;SDS011;47274;43.054;25.146;2022-11-20T16:27:18;24.75;;;11.90;;
61407;SDS011;47274;43.054;25.146;2022-11-20T16:29:47;39.45;;;22.30;;
61407;SDS011;47274;43.054;25.146;2022-11-20T16:32:13;25.30;;;12.32;;
61407;SDS011;47274;43.054;25.146;2022-11-20T16:34:39;24.90;;;13.55;;
61407;SDS011;47274;43.054;25.146;2022-11-20T16:37:05;26.38;;;14.43;;
61407;SDS011;47274;43.054;25.146;2022-11-20T16:39:32;38.13;;;11.98;;
61407;SDS011;47274;43.054;25.146;2022-11-20T16:41:57;23.02;;;10.68;;
61407;SDS011;47274;43.054;25.146;2022-11-20T16:44:28;34.53;;;13.88;;
61407;SDS011;47274;43.054;25.146;2022-11-20T16:46:54;119.07;;;31.58;;
61407;SDS011;47274;43.054;25.146;2022-11-20T16:49:23;112.95;;;33.33;;
61407;SDS011;47274;43.054;25.146;2022-11-20T16:51:49;39.72;;;22.70;;
61407;SDS011;47274;43.054;25.146;2022-11-20T16:54:16;59.22;;;37.72;;
61407;SDS011;47274;43.054;25.146;2022-11-20T16:56:43;33.80;;;20.38;;
61407;SDS011;47274;43.054;25.146;2022-11-20T16:59:12;34.83;;;21.88;;
61407;SDS011;47274;43.054;25.146;2022-11-20T17:01:38;29.42;;;17.48;;
61407;SDS011;47274;43.054;25.146;2022-11-20T17:04:06;49.15;;;38.58;;
61407;SDS011;47274;43.054;25.146;2022-11-20T17:06:33;56.20;;;43.50;;
61407;SDS011;47274;43.054;25.146;2022-11-20T17:09:02;35.85;;;25.08;;
61407;SDS011;47274;43.054;25.146;2022-11-20T17:11:29;87.43;;;62.50;;
61407;SDS011;47274;43.054;25.146;2022-11-20T17:13:57;28.38;;;18.30;;
61407;SDS011;47274;43.054;25.146;2022-11-20T17:16:28;45.95;;;35.17;;
61407;SDS011;47274;43.054;25.146;2022-11-20T17:18:56;31.00;;;21.33;;
61407;SDS011;47274;43.054;25.146;2022-11-20T17:21:24;24.77;;;15.40;;
61407;SDS011;47274;43.054;25.146;2022-11-20T17:23:50;24.75;;;15.13;;
61407;SDS011;47274;43.054;25.146;2022-11-20T17:26:20;29.55;;;18.88;;
61407;SDS011;47274;43.054;25.146;2022-11-20T17:28:55;18.65;;;9.40;;
61407;SDS011;47274;43.054;25.146;2022-11-20T17:31:26;22.02;;;12.80;;
61407;SDS011;47274;43.054;25.146;2022-11-20T17:33:53;12.40;;;5.78;;
61407;SDS011;47274;43.054;25.146;2022-11-20T17:36:19;15.30;;;8.05;;
61407;SDS011;47274;43.054;25.146;2022-11-20T17:38:45;44.28;;;36.17;;
61407;SDS011;47274;43.054;25.146;2022-11-20T17:41:15;44.50;;;34.78;;
61407;SDS011;47274;43.054;25.146;2022-11-20T17:43:43;15.48;;;7.57;;
61407;SDS011;47274;43.054;25.146;2022-11-20T17:46:16;23.75;;;14.80;;
61407;SDS011;47274;43.054;25.146;2022-11-20T17:48:44;33.78;;;20.70;;
61407;SDS011;47274;43.054;25.146;2022-11-20T17:51:15;19.80;;;10.10;;
61407;SDS011;47274;43.054;25.146;2022-11-20T17:53:46;24.33;;;13.77;;
61407;SDS011;47274;43.054;25.146;2022-11-20T17:56:14;67.18;;;52.75;;
61407;SDS011;47274;43.054;25.146;2022-11-20T17:58:59;223.15;;;148.18;;
61407;SDS011;47274;43.054;25.146;2022-11-20T18:01:29;540.47;;;322.88;;
61407;SDS011;47274;43.054;25.146;2022-11-20T18:03:55;188.73;;;119.13;;
61407;SDS011;47274;43.054;25.146;2022-11-20T18:06:22;207.52;;;127.68;;
61407;SDS011;47274;43.054;25.146;2022-11-20T18:08:51;130.02;;;85.38;;
61407;SDS011;47274;43.054;25.146;2022-11-20T18:11:23;103.68;;;72.80;;
61407;SDS011;47274;43.054;25.146;2022-11-20T18:13:52;63.38;;;52.38;;
61407;SDS011;47274;43.054;25.146;2022-11-20T18:16:39;58.65;;;45.45;;
61407;SDS011;47274;43.054;25.146;2022-11-20T18:19:14;39.50;;;29.50;;
61407;SDS011;47274;43.054;25.146;2022-11-20T18:21:42;18.23;;;8.43;;
61407;SDS011;47274;43.054;25.146;2022-11-20T18:24:08;27.23;;;20.75;;
61407;SDS011;47274;43.054;25.146;2022-11-20T18:26:38;540.67;;;303.05;;
61407;SDS011;47274;43.054;25.146;2022-11-20T18:29:10;656.47;;;330.05;;
61407;SDS011;47274;43.054;25.146;2022-11-20T18:31:37;677.60;;;350.58;;
61407;SDS011;47274;43.054;25.146;2022-11-20T18:34:04;661.92;;;307.52;;
61407;SDS011;47274;43.054;25.146;2022-11-20T18:36:31;122.90;;;50.60;;
61407;SDS011;47274;43.054;25.146;2022-11-20T18:38:57;669.50;;;305.08;;
61407;SDS011;47274;43.054;25.146;2022-11-20T18:41:27;344.83;;;142.82;;
61407;SDS011;47274;43.054;25.146;2022-11-20T18:44:14;236.98;;;109.97;;
61407;SDS011;47274;43.054;25.146;2022-11-20T18:47:02;275.02;;;118.53;;
61407;SDS011;47274;43.054;25.146;2022-11-20T18:49:29;250.88;;;107.05;;
61407;SDS011;47274;43.054;25.146;2022-11-20T18:51:55;152.35;;;63.03;;
61407;SDS011;47274;43.054;25.146;2022-11-20T18:54:25;112.82;;;48.83;;
61407;SDS011;47274;43.054;25.146;2022-11-20T18:56:51;119.47;;;54.60;;
61407;SDS011;47274;43.054;25.146;2022-11-20T18:59:17;93.68;;;45.22;;
61407;SDS011;47274;43.054;25.146;2022-11-20T19:01:48;97.90;;;49.03;;
61407;SDS011;47274;43.054;25.146;2022-11-20T19:04:15;72.97;;;42.13;;
61407;SDS011;47274;43.054;25.146;2022-11-20T19:06:43;57.75;;;29.77;;
61407;SDS011;47274;43.054;25.146;2022-11-20T19:09:17;56.25;;;30.27;;
61407;SDS011;47274;43.054;25.146;2022-11-20T19:11:47;30.48;;;15.57;;
61407;SDS011;47274;43.054;25.146;2022-11-20T19:14:13;35.78;;;15.93;;
61407;SDS011;47274;43.054;25.146;2022-11-20T19:16:39;30.88;;;13.60;;
61407;SDS011;47274;43.054;25.146;2022-11-20T19:19:07;28.52;;;11.90;;
61407;SDS011;47274;43.054;25.146;2022-11-20T19:21:34;23.52;;;11.70;;
61407;SDS011;47274;43.054;25.146;2022-11-20T19:24:00;14.95;;;6.85;;
61407;SDS011;47274;43.054;25.146;2022-11-20T19:26:28;15.18;;;7.95;;
61407;SDS011;47274;43.054;25.146;2022-11-20T19:28:54;7.13;;;3.92;;
61407;SDS011;47274;43.054;25.146;2022-11-20T19:31:22;4.50;;;2.45;;
61407;SDS011;47274;43.054;25.146;2022-11-20T19:33:53;2.15;;;1.90;;
61407;SDS011;47274;43.054;25.146;2022-11-20T19:36:24;3.08;;;2.60;;
61407;SDS011;47274;43.054;25.146;2022-11-20T19:38:54;5.13;;;2.85;;
61407;SDS011;47274;43.054;25.146;2022-11-20T19:41:23;2.58;;;2.28;;
61407;SDS011;47274;43.054;25.146;2022-11-20T19:46:23;2.80;;;2.40;;
61407;SDS011;47274;43.054;25.146;2022-11-20T19:48:50;3.78;;;2.90;;
61407;SDS011;47274;43.054;25.146;2022-11-20T19:51:17;3.75;;;1.98;;
61407;SDS011;47274;43.054;25.146;2022-11-20T19:53:45;4.53;;;2.70;;
61407;SDS011;47274;43.054;25.146;2022-11-20T19:56:11;3.38;;;2.50;;
61407;SDS011;47274;43.054;25.146;2022-11-20T19:58:37;3.50;;;2.40;;
61407;SDS011;47274;43.054;25.146;2022-11-20T20:01:08;3.20;;;2.63;;
61407;SDS011;47274;43.054;25.146;2022-11-20T20:03:45;78.70;;;41.60;;
61407;SDS011;47274;43.054;25.146;2022-11-20T20:06:15;137.65;;;63.40;;
61407;SDS011;47274;43.054;25.146;2022-11-20T20:08:43;12.38;;;4.75;;
61407;SDS011;47274;43.054;25.146;2022-11-20T20:11:10;9.18;;;3.78;;
61407;SDS011;47274;43.054;25.146;2022-11-20T20:13:37;10.48;;;4.10;;
61407;SDS011;47274;43.054;25.146;2022-11-20T20:16:07;6.00;;;3.30;;
61407;SDS011;47274;43.054;25.146;2022-11-20T20:18:33;5.78;;;2.80;;
61407;SDS011;47274;43.054;25.146;2022-11-20T20:21:07;6.43;;;3.30;;
61407;SDS011;47274;43.054;25.146;2022-11-20T20:23:34;5.68;;;3.15;;
61407;SDS011;47274;43.054;25.146;2022-11-20T20:26:01;5.45;;;3.50;;
61407;SDS011;47274;43.054;25.146;2022-11-20T20:28:28;4.82;;;2.60;;
61407;SDS011;47274;43.054;25.146;2022-11-20T20:30:57;6.05;;;3.50;;
61407;SDS011;47274;43.054;25.146;2022-11-20T20:33:31;5.03;;;3.22;;
61407;SDS011;47274;43.054;25.146;2022-11-20T20:35:57;6.00;;;2.90;;
61407;SDS011;47274;43.054;25.146;2022-11-20T20:38:23;5.28;;;2.90;;
61407;SDS011;47274;43.054;25.146;2022-11-20T20:40:49;4.93;;;3.00;;
61407;SDS011;47274;43.054;25.146;2022-11-20T20:43:16;6.35;;;3.67;;
61407;SDS011;47274;43.054;25.146;2022-11-20T20:45:49;4.40;;;2.75;;
61407;SDS011;47274;43.054;25.146;2022-11-20T20:48:16;3.17;;;1.77;;
61407;SDS011;47274;43.054;25.146;2022-11-20T20:53:40;2.45;;;2.00;;
61407;SDS011;47274;43.054;25.146;2022-11-20T20:56:08;3.22;;;2.00;;
61407;SDS011;47274;43.054;25.146;2022-11-20T20:58:34;1.73;;;1.63;;
61407;SDS011;47274;43.054;25.146;2022-11-20T21:01:01;3.67;;;2.10;;
61407;SDS011;47274;43.054;25.146;2022-11-20T21:03:31;1.98;;;1.77;;
61407;SDS011;47274;43.054;25.146;2022-11-20T21:05:58;2.15;;;1.95;;
61407;SDS011;47274;43.054;25.146;2022-11-20T21:08:24;3.00;;;2.20;;
61407;SDS011;47274;43.054;25.146;2022-11-20T21:10:51;1.80;;;1.70;;
61407;SDS011;47274;43.054;25.146;2022-11-20T21:13:19;2.00;;;1.80;;
61407;SDS011;47274;43.054;25.146;2022-11-20T21:15:48;2.25;;;2.05;;
61407;SDS011;47274;43.054;25.146;2022-11-20T21:18:16;4.07;;;2.20;;
61407;SDS011;47274;43.054;25.146;2022-11-20T21:20:43;4.03;;;2.15;;
61407;SDS011;47274;43.054;25.146;2022-11-20T21:23:28;3.55;;;2.40;;
61407;SDS011;47274;43.054;25.146;2022-11-20T21:25:55;4.63;;;2.72;;
61407;SDS011;47274;43.054;25.146;2022-11-20T21:28:21;2.75;;;2.35;;
61407;SDS011;47274;43.054;25.146;2022-11-20T21:30:46;2.60;;;2.40;;
61407;SDS011;47274;43.054;25.146;2022-11-20T21:33:12;2.42;;;1.83;;
61407;SDS011;47274;43.054;25.146;2022-11-20T21:35:39;2.50;;;2.10;;
61407;SDS011;47274;43.054;25.146;2022-11-20T21:38:06;4.70;;;2.55;;
61407;SDS011;47274;43.054;25.146;2022-11-20T21:40:32;2.30;;;1.73;;
61407;SDS011;47274;43.054;25.146;2022-11-20T21:42:58;7.10;;;2.33;;
61407;SDS011;47274;43.054;25.146;2022-11-20T21:45:24;3.60;;;2.15;;
61407;SDS011;47274;43.054;25.146;2022-11-20T21:47:50;6.13;;;2.13;;
61407;SDS011;47274;43.054;25.146;2022-11-20T21:50:17;4.70;;;2.33;;
61407;SDS011;47274;43.054;25.146;2022-11-20T21:52:43;9.48;;;2.53;;
61407;SDS011;47274;43.054;25.146;2022-11-20T21:55:09;10.15;;;2.70;;
61407;SDS011;47274;43.054;25.146;2022-11-20T21:57:37;9.45;;;2.70;;
61407;SDS011;47274;43.054;25.146;2022-11-20T22:00:03;9.27;;;3.22;;
61407;SDS011;47274;43.054;25.146;2022-11-20T22:02:37;8.37;;;3.33;;
61407;SDS011;47274;43.054;25.146;2022-11-20T22:05:04;8.48;;;3.10;;
61407;SDS011;47274;43.054;25.146;2022-11-20T22:07:31;9.70;;;3.17;;
61407;SDS011;47274;43.054;25.146;2022-11-20T22:09:57;8.60;;;3.20;;
61407;SDS011;47274;43.054;25.146;2022-11-20T22:12:23;117.90;;;66.00;;
61407;SDS011;47274;43.054;25.146;2022-11-20T22:14:49;564.42;;;245.07;;
61407;SDS011;47274;43.054;25.146;2022-11-20T22:17:14;367.25;;;134.18;;
61407;SDS011;47274;43.054;25.146;2022-11-20T22:19:40;26.17;;;8.63;;
61407;SDS011;47274;43.054;25.146;2022-11-20T22:22:06;163.13;;;58.50;;
61407;SDS011;47274;43.054;25.146;2022-11-20T22:24:32;63.92;;;23.05;;
61407;SDS011;47274;43.054;25.146;2022-11-20T22:26:58;229.35;;;88.13;;
61407;SDS011;47274;43.054;25.146;2022-11-20T22:29:23;271.58;;;118.25;;
61407;SDS011;47274;43.054;25.146;2022-11-20T22:31:50;41.55;;;17.20;;
61407;SDS011;47274;43.054;25.146;2022-11-20T22:34:17;45.78;;;21.67;;
61407;SDS011;47274;43.054;25.146;2022-11-20T22:36:43;27.27;;;8.82;;
61407;SDS011;47274;43.054;25.146;2022-11-20T22:39:08;24.95;;;9.18;;
61407;SDS011;47274;43.054;25.146;2022-11-20T22:41:34;21.45;;;7.35;;
61407;SDS011;47274;43.054;25.146;2022-11-20T22:44:01;18.52;;;4.57;;
61407;SDS011;47274;43.054;25.146;2022-11-20T22:46:32;15.88;;;4.10;;
61407;SDS011;47274;43.054;25.146;2022-11-20T22:49:04;16.15;;;4.88;;
61407;SDS011;47274;43.054;25.146;2022-11-20T22:51:37;26.17;;;9.68;;
61407;SDS011;47274;43.054;25.146;2022-11-20T22:54:04;14.90;;;4.65;;
61407;SDS011;47274;43.054;25.146;2022-11-20T22:56:30;12.85;;;3.83;;
61407;SDS011;47274;43.054;25.146;2022-11-20T22:58:56;10.65;;;3.78;;
61407;SDS011;47274;43.054;25.146;2022-11-20T23:01:23;19.20;;;5.28;;
61407;SDS011;47274;43.054;25.146;2022-11-20T23:03:51;15.45;;;4.57;;
61407;SDS011;47274;43.054;25.146;2022-11-20T23:06:20;15.48;;;4.78;;
61407;SDS011;47274;43.054;25.146;2022-11-20T23:08:47;14.77;;;4.80;;
61407;SDS011;47274;43.054;25.146;2022-11-20T23:11:14;18.52;;;4.50;;
61407;SDS011;47274;43.054;25.146;2022-11-20T23:13:42;15.50;;;5.68;;
61407;SDS011;47274;43.054;25.146;2022-11-20T23:16:14;10.55;;;3.72;;
61407;SDS011;47274;43.054;25.146;2022-11-20T23:18:42;14.10;;;4.03;;
61407;SDS011;47274;43.054;25.146;2022-11-20T23:21:16;12.10;;;3.70;;
61407;SDS011;47274;43.054;25.146;2022-11-20T23:23:46;15.18;;;5.03;;
61407;SDS011;47274;43.054;25.146;2022-11-20T23:26:14;10.18;;;3.60;;
61407;SDS011;47274;43.054;25.146;2022-11-20T23:28:41;9.57;;;3.40;;
61407;SDS011;47274;43.054;25.146;2022-11-20T23:31:08;15.35;;;5.28;;
61407;SDS011;47274;43.054;25.146;2022-11-20T23:33:36;14.57;;;5.20;;
61407;SDS011;47274;43.054;25.146;2022-11-20T23:36:06;15.38;;;5.93;;
61407;SDS011;47274;43.054;25.146;2022-11-20T23:38:32;17.50;;;6.80;;
61407;SDS011;47274;43.054;25.146;2022-11-20T23:40:59;19.75;;;6.85;;
61407;SDS011;47274;43.054;25.146;2022-11-20T23:43:25;16.52;;;5.82;;
61407;SDS011;47274;43.054;25.146;2022-11-20T23:45:52;11.85;;;5.13;;
61407;SDS011;47274;43.054;25.146;2022-11-20T23:48:20;10.70;;;4.40;;
61407;SDS011;47274;43.054;25.146;2022-11-20T23:50:47;11.80;;;4.85;;
61407;SDS011;47274;43.054;25.146;2022-11-20T23:53:15;10.43;;;4.25;;
61407;SDS011;47274;43.054;25.146;2022-11-20T23:55:45;10.15;;;3.83;;
61407;SDS011;47274;43.054;25.146;2022-11-20T23:58:12;9.70;;;4.35;;
